DTYO2: Dirty Creek

                                SHEF ID:       DTYO2     Dirty Creek
STATION TYPE:
Regulating: Stage = 19.00, Flow = 2766

PRECIP STAGE RIV-FLOW VOLTAGE BAT-LOAD
in ft cfs volt volt
Ccp-Rev Ccp-Rev Ccp-Rev Ccp-Rev Ccp-Rev
(America/Chicago)
04/26 00:00 0.00 16.30 1829 12.81 12.65
04/26 01:00 0.00 16.11 1772 12.73 12.65
04/26 02:00 0.00 15.87 1700 12.73 12.57
04/26 03:00 0.00 15.57 1614 12.73 12.57
04/26 04:00 0.00 15.23 1518 12.73 12.57
04/26 05:00 0.00 14.86 1417 12.73 12.57
04/26 06:00 0.00 14.47 1315 12.73 12.57
04/26 07:00 0.00 14.07 1215 12.65 12.57
04/26 08:00 0.00 13.65 1113 12.73 12.57
04/26 09:00 0.00 13.22 1022 12.73 12.57
04/26 10:00 0.00 12.79 938 12.89 12.65
04/26 11:00 0.00 12.36 863 13.21 12.97
04/26 12:00 0.00 11.96 810 13.37 13.21
04/26 13:00 0.00 11.56 758 13.37 13.13
04/26 14:00 0.00 11.20 712 13.29 13.05
04/26 15:00 0.00 10.86 670 13.29 13.05
04/26 16:00 0.00 10.56 634 13.21 12.97
04/26 17:00 0.00 10.30 603 13.05 12.97
04/26 18:00 0.00 10.10 580 13.05 12.97
04/26 19:00 0.00 9.97 566 12.97 12.81
04/26 20:00 0.00 9.92 560 12.89 12.73
04/26 21:00 0.00 9.96 564 12.89 12.65
04/26 22:00 0.00 10.07 577 12.81 12.65
04/26 23:00 ---- ---- ---- ---- ----
Data processed at Mon 27Apr2026 03:49 GMT

NOTICE: If you are parsing this page

Please convert to using our Data API. Starting early 2026 we will be migrating to: https://water.usace.army.mil with modern pages rendered in JavaScript. When this migration completes you will no longer be able to scrape this page! CWMSDataAPI (CDA)

Timeseries IDs (TSIDs)

TSIDs used from left to right in the data table
DIRT.Precip-Inc.Total.1Hour.1Hour.Ccp-Rev
DIRT.Stage.Inst.1Hour.0.Ccp-Rev
DIRT.Flow.Inst.1Hour.0.Ccp-Rev
DIRT.Volt-Battery.Inst.1Hour.0.Ccp-Rev
DIRT.Volt-Battery Load.Inst.1Hour.0.Ccp-Rev

                            

All information presented herein is the property of the government of the United States of America and may be revised or deleted at any time without prior notice. Dissemination of this information without the expressed written consent of the Public Affairs Office, Tulsa District U.S. Army Corps of Engineers is strictly prohibited. These data are gathered electronically and, as presented, have NOT undergone any form of quality control. These data are NOT guaranteed to be valid or correct.